sensor_id;sensor_type;location;lat;lon;timestamp;temperature;humidity
45785;DHT22;31489;51.404;5.474;2022-10-31T00:02:11;18.50;67.80
45785;DHT22;31489;51.404;5.474;2022-10-31T00:04:37;18.50;67.80
45785;DHT22;31489;51.404;5.474;2022-10-31T00:07:02;18.50;67.80
45785;DHT22;31489;51.404;5.474;2022-10-31T00:09:28;18.50;67.80
45785;DHT22;31489;51.404;5.474;2022-10-31T00:11:53;18.50;67.90
45785;DHT22;31489;51.404;5.474;2022-10-31T00:14:19;18.40;67.80
45785;DHT22;31489;51.404;5.474;2022-10-31T00:16:44;18.40;68.40
45785;DHT22;31489;51.404;5.474;2022-10-31T00:19:10;18.40;67.80
45785;DHT22;31489;51.404;5.474;2022-10-31T00:21:36;18.40;67.90
45785;DHT22;31489;51.404;5.474;2022-10-31T00:24:02;18.40;67.90
45785;DHT22;31489;51.404;5.474;2022-10-31T00:26:29;18.40;67.90
45785;DHT22;31489;51.404;5.474;2022-10-31T00:28:55;18.30;67.90
45785;DHT22;31489;51.404;5.474;2022-10-31T00:31:21;18.30;67.90
45785;DHT22;31489;51.404;5.474;2022-10-31T00:33:47;18.30;67.80
45785;DHT22;31489;51.404;5.474;2022-10-31T00:36:15;18.30;67.80
45785;DHT22;31489;51.404;5.474;2022-10-31T00:38:42;18.30;67.80
45785;DHT22;31489;51.404;5.474;2022-10-31T00:41:09;18.20;67.70
45785;DHT22;31489;51.404;5.474;2022-10-31T00:43:35;18.20;67.70
45785;DHT22;31489;51.404;5.474;2022-10-31T00:46:00;18.20;67.70
45785;DHT22;31489;51.404;5.474;2022-10-31T00:48:26;18.20;67.80
45785;DHT22;31489;51.404;5.474;2022-10-31T00:50:51;18.20;67.80
45785;DHT22;31489;51.404;5.474;2022-10-31T00:53:17;18.10;67.80
45785;DHT22;31489;51.404;5.474;2022-10-31T00:55:42;18.10;67.80
45785;DHT22;31489;51.404;5.474;2022-10-31T00:58:08;18.10;67.90
45785;DHT22;31489;51.404;5.474;2022-10-31T01:00:34;18.10;67.80
45785;DHT22;31489;51.404;5.474;2022-10-31T01:03:00;18.00;67.90
45785;DHT22;31489;51.404;5.474;2022-10-31T01:05:26;18.00;67.80
45785;DHT22;31489;51.404;5.474;2022-10-31T01:07:52;18.00;67.90
45785;DHT22;31489;51.404;5.474;2022-10-31T01:10:18;18.00;68.10
45785;DHT22;31489;51.404;5.474;2022-10-31T01:12:45;18.00;68.20
45785;DHT22;31489;51.404;5.474;2022-10-31T01:15:13;17.90;68.20
45785;DHT22;31489;51.404;5.474;2022-10-31T01:17:39;17.90;68.30
45785;DHT22;31489;51.404;5.474;2022-10-31T01:20:07;17.90;68.30
45785;DHT22;31489;51.404;5.474;2022-10-31T01:22:33;17.90;68.30
45785;DHT22;31489;51.404;5.474;2022-10-31T01:24:59;17.90;68.20
45785;DHT22;31489;51.404;5.474;2022-10-31T01:27:25;17.80;68.10
45785;DHT22;31489;51.404;5.474;2022-10-31T01:29:52;17.80;68.10
45785;DHT22;31489;51.404;5.474;2022-10-31T01:32:18;17.80;68.00
45785;DHT22;31489;51.404;5.474;2022-10-31T01:34:44;17.80;68.00
45785;DHT22;31489;51.404;5.474;2022-10-31T01:37:09;17.70;67.80
45785;DHT22;31489;51.404;5.474;2022-10-31T01:39:35;17.70;67.80
45785;DHT22;31489;51.404;5.474;2022-10-31T01:42:01;17.70;67.90
45785;DHT22;31489;51.404;5.474;2022-10-31T01:49:33;17.60;67.80
45785;DHT22;31489;51.404;5.474;2022-10-31T01:55:24;17.50;67.80
45785;DHT22;31489;51.404;5.474;2022-10-31T01:57:45;17.50;67.80
45785;DHT22;31489;51.404;5.474;2022-10-31T02:00:12;17.50;67.70
45785;DHT22;31489;51.404;5.474;2022-10-31T02:02:39;17.40;67.80
45785;DHT22;31489;51.404;5.474;2022-10-31T02:05:09;17.40;67.90
45785;DHT22;31489;51.404;5.474;2022-10-31T02:10:23;17.30;68.20
45785;DHT22;31489;51.404;5.474;2022-10-31T02:12:51;17.30;67.90
45785;DHT22;31489;51.404;5.474;2022-10-31T02:15:18;17.30;68.00
45785;DHT22;31489;51.404;5.474;2022-10-31T02:17:44;17.30;67.90
45785;DHT22;31489;51.404;5.474;2022-10-31T02:20:16;17.30;67.90
45785;DHT22;31489;51.404;5.474;2022-10-31T02:34:03;17.10;68.00
45785;DHT22;31489;51.404;5.474;2022-10-31T02:36:46;17.10;67.90
45785;DHT22;31489;51.404;5.474;2022-10-31T02:39:29;17.10;67.90
45785;DHT22;31489;51.404;5.474;2022-10-31T02:42:01;17.00;67.80
45785;DHT22;31489;51.404;5.474;2022-10-31T02:44:45;17.00;67.60
45785;DHT22;31489;51.404;5.474;2022-10-31T02:47:18;17.00;67.80
45785;DHT22;31489;51.404;5.474;2022-10-31T02:50:22;16.90;67.70
45785;DHT22;31489;51.404;5.474;2022-10-31T02:52:52;16.90;67.80
45785;DHT22;31489;51.404;5.474;2022-10-31T02:58:17;16.90;68.00
45785;DHT22;31489;51.404;5.474;2022-10-31T03:00:48;16.90;68.20
45785;DHT22;31489;51.404;5.474;2022-10-31T03:03:29;16.90;68.00
45785;DHT22;31489;51.404;5.474;2022-10-31T03:06:00;16.80;68.30
45785;DHT22;31489;51.404;5.474;2022-10-31T03:08:54;16.90;68.20
45785;DHT22;31489;51.404;5.474;2022-10-31T03:11:24;16.80;68.70
45785;DHT22;31489;51.404;5.474;2022-10-31T03:14:08;16.80;68.60
45785;DHT22;31489;51.404;5.474;2022-10-31T03:19:12;16.80;68.70
45785;DHT22;31489;51.404;5.474;2022-10-31T03:21:49;16.80;68.50
45785;DHT22;31489;51.404;5.474;2022-10-31T03:24:19;16.80;68.50
45785;DHT22;31489;51.404;5.474;2022-10-31T03:26:51;16.80;68.40
45785;DHT22;31489;51.404;5.474;2022-10-31T03:29:20;16.80;68.40
45785;DHT22;31489;51.404;5.474;2022-10-31T03:34:37;16.80;68.30
45785;DHT22;31489;51.404;5.474;2022-10-31T03:37:05;16.80;68.10
45785;DHT22;31489;51.404;5.474;2022-10-31T03:39:33;16.70;67.90
45785;DHT22;31489;51.404;5.474;2022-10-31T03:42:06;16.70;67.90
45785;DHT22;31489;51.404;5.474;2022-10-31T03:44:35;16.60;67.90
45785;DHT22;31489;51.404;5.474;2022-10-31T03:47:02;16.60;67.70
45785;DHT22;31489;51.404;5.474;2022-10-31T03:49:29;16.60;67.80
45785;DHT22;31489;51.404;5.474;2022-10-31T03:52:11;16.60;67.80
45785;DHT22;31489;51.404;5.474;2022-10-31T03:54:47;16.60;67.80
45785;DHT22;31489;51.404;5.474;2022-10-31T03:59:43;16.60;68.00
45785;DHT22;31489;51.404;5.474;2022-10-31T04:02:18;16.50;67.70
45785;DHT22;31489;51.404;5.474;2022-10-31T04:04:46;16.50;68.10
45785;DHT22;31489;51.404;5.474;2022-10-31T04:07:12;16.50;68.10
45785;DHT22;31489;51.404;5.474;2022-10-31T04:09:43;16.50;67.80
45785;DHT22;31489;51.404;5.474;2022-10-31T04:12:12;16.50;68.10
45785;DHT22;31489;51.404;5.474;2022-10-31T04:14:42;16.50;68.30
45785;DHT22;31489;51.404;5.474;2022-10-31T04:17:12;16.40;68.90
45785;DHT22;31489;51.404;5.474;2022-10-31T04:19:38;16.50;68.40
45785;DHT22;31489;51.404;5.474;2022-10-31T04:22:04;16.40;68.50
45785;DHT22;31489;51.404;5.474;2022-10-31T04:24:30;16.40;68.60
45785;DHT22;31489;51.404;5.474;2022-10-31T04:26:56;16.50;68.80
45785;DHT22;31489;51.404;5.474;2022-10-31T04:29:21;16.40;68.80
45785;DHT22;31489;51.404;5.474;2022-10-31T04:31:47;16.40;68.80
45785;DHT22;31489;51.404;5.474;2022-10-31T04:34:14;16.40;68.80
45785;DHT22;31489;51.404;5.474;2022-10-31T04:36:40;16.40;68.80
45785;DHT22;31489;51.404;5.474;2022-10-31T04:39:05;16.40;68.80
45785;DHT22;31489;51.404;5.474;2022-10-31T04:41:31;16.40;68.60
45785;DHT22;31489;51.404;5.474;2022-10-31T04:43:57;16.40;68.60
45785;DHT22;31489;51.404;5.474;2022-10-31T04:46:23;16.40;69.20
45785;DHT22;31489;51.404;5.474;2022-10-31T04:48:49;16.40;68.60
45785;DHT22;31489;51.404;5.474;2022-10-31T04:51:14;16.40;68.60
45785;DHT22;31489;51.404;5.474;2022-10-31T04:53:40;16.30;68.60
45785;DHT22;31489;51.404;5.474;2022-10-31T04:56:06;16.30;68.70
45785;DHT22;31489;51.404;5.474;2022-10-31T04:58:32;16.30;68.80
45785;DHT22;31489;51.404;5.474;2022-10-31T05:00:58;16.30;68.90
45785;DHT22;31489;51.404;5.474;2022-10-31T05:03:24;16.30;68.90
45785;DHT22;31489;51.404;5.474;2022-10-31T05:05:50;16.30;68.90
45785;DHT22;31489;51.404;5.474;2022-10-31T05:08:15;16.30;68.90
45785;DHT22;31489;51.404;5.474;2022-10-31T05:10:41;16.30;68.80
45785;DHT22;31489;51.404;5.474;2022-10-31T05:13:07;16.30;68.80
45785;DHT22;31489;51.404;5.474;2022-10-31T05:15:43;16.30;68.80
45785;DHT22;31489;51.404;5.474;2022-10-31T05:18:08;16.20;68.90
45785;DHT22;31489;51.404;5.474;2022-10-31T05:20:34;16.20;68.70
45785;DHT22;31489;51.404;5.474;2022-10-31T05:23:00;16.20;68.20
45785;DHT22;31489;51.404;5.474;2022-10-31T05:25:27;16.20;68.20
45785;DHT22;31489;51.404;5.474;2022-10-31T05:27:55;16.10;68.30
45785;DHT22;31489;51.404;5.474;2022-10-31T05:30:29;16.10;68.30
45785;DHT22;31489;51.404;5.474;2022-10-31T05:32:56;16.10;68.40
45785;DHT22;31489;51.404;5.474;2022-10-31T05:35:24;16.10;68.20
45785;DHT22;31489;51.404;5.474;2022-10-31T05:37:51;16.00;68.30
45785;DHT22;31489;51.404;5.474;2022-10-31T05:40:18;16.00;68.40
45785;DHT22;31489;51.404;5.474;2022-10-31T05:42:45;16.00;68.40
45785;DHT22;31489;51.404;5.474;2022-10-31T05:45:13;16.00;68.40
45785;DHT22;31489;51.404;5.474;2022-10-31T05:47:39;15.90;68.30
45785;DHT22;31489;51.404;5.474;2022-10-31T05:50:06;15.90;68.30
45785;DHT22;31489;51.404;5.474;2022-10-31T05:52:33;15.90;68.40
45785;DHT22;31489;51.404;5.474;2022-10-31T05:55:01;15.90;68.30
45785;DHT22;31489;51.404;5.474;2022-10-31T05:57:32;15.90;68.30
45785;DHT22;31489;51.404;5.474;2022-10-31T06:00:04;15.90;68.30
45785;DHT22;31489;51.404;5.474;2022-10-31T06:02:48;15.80;68.20
45785;DHT22;31489;51.404;5.474;2022-10-31T06:05:15;15.80;68.90
45785;DHT22;31489;51.404;5.474;2022-10-31T06:07:42;15.80;68.20
45785;DHT22;31489;51.404;5.474;2022-10-31T06:10:08;15.80;68.40
45785;DHT22;31489;51.404;5.474;2022-10-31T06:12:35;15.80;68.40
45785;DHT22;31489;51.404;5.474;2022-10-31T06:15:06;15.70;68.50
45785;DHT22;31489;51.404;5.474;2022-10-31T06:17:36;15.70;68.50
45785;DHT22;31489;51.404;5.474;2022-10-31T06:20:03;15.70;68.60
45785;DHT22;31489;51.404;5.474;2022-10-31T06:22:29;15.70;68.50
45785;DHT22;31489;51.404;5.474;2022-10-31T06:24:54;15.70;68.50
45785;DHT22;31489;51.404;5.474;2022-10-31T06:27:20;15.70;68.50
45785;DHT22;31489;51.404;5.474;2022-10-31T06:29:47;15.60;68.60
45785;DHT22;31489;51.404;5.474;2022-10-31T06:32:13;15.60;68.70
45785;DHT22;31489;51.404;5.474;2022-10-31T06:34:40;15.60;68.90
45785;DHT22;31489;51.404;5.474;2022-10-31T06:37:07;15.60;68.90
45785;DHT22;31489;51.404;5.474;2022-10-31T06:39:34;15.60;69.00
45785;DHT22;31489;51.404;5.474;2022-10-31T06:42:00;15.60;69.20
45785;DHT22;31489;51.404;5.474;2022-10-31T06:44:26;15.60;69.20
45785;DHT22;31489;51.404;5.474;2022-10-31T06:46:52;15.60;69.30
45785;DHT22;31489;51.404;5.474;2022-10-31T06:49:18;15.60;69.40
45785;DHT22;31489;51.404;5.474;2022-10-31T06:51:47;15.60;69.40
45785;DHT22;31489;51.404;5.474;2022-10-31T06:54:13;15.60;69.40
45785;DHT22;31489;51.404;5.474;2022-10-31T06:56:38;15.60;69.40
45785;DHT22;31489;51.404;5.474;2022-10-31T06:59:04;15.60;69.50
45785;DHT22;31489;51.404;5.474;2022-10-31T07:01:29;15.60;69.60
45785;DHT22;31489;51.404;5.474;2022-10-31T07:03:55;15.70;69.70
45785;DHT22;31489;51.404;5.474;2022-10-31T07:06:21;15.60;69.50
45785;DHT22;31489;51.404;5.474;2022-10-31T07:08:47;15.70;69.60
45785;DHT22;31489;51.404;5.474;2022-10-31T07:11:13;15.60;69.50
45785;DHT22;31489;51.404;5.474;2022-10-31T07:13:38;15.60;69.70
45785;DHT22;31489;51.404;5.474;2022-10-31T07:16:05;15.60;69.70
45785;DHT22;31489;51.404;5.474;2022-10-31T07:18:38;15.70;69.90
45785;DHT22;31489;51.404;5.474;2022-10-31T07:21:06;15.70;70.00
45785;DHT22;31489;51.404;5.474;2022-10-31T07:23:32;15.70;70.10
45785;DHT22;31489;51.404;5.474;2022-10-31T07:25:58;15.70;70.20
45785;DHT22;31489;51.404;5.474;2022-10-31T07:28:25;15.70;70.10
45785;DHT22;31489;51.404;5.474;2022-10-31T07:30:53;15.70;70.20
45785;DHT22;31489;51.404;5.474;2022-10-31T07:33:19;15.70;70.20
45785;DHT22;31489;51.404;5.474;2022-10-31T07:35:46;15.70;70.30
45785;DHT22;31489;51.404;5.474;2022-10-31T07:38:13;15.70;70.40
45785;DHT22;31489;51.404;5.474;2022-10-31T07:40:40;15.70;70.50
45785;DHT22;31489;51.404;5.474;2022-10-31T07:43:06;15.70;70.60
45785;DHT22;31489;51.404;5.474;2022-10-31T07:45:31;15.80;70.70
45785;DHT22;31489;51.404;5.474;2022-10-31T07:47:57;15.80;70.70
45785;DHT22;31489;51.404;5.474;2022-10-31T07:50:25;15.80;70.80
45785;DHT22;31489;51.404;5.474;2022-10-31T07:53:18;15.80;70.90
45785;DHT22;31489;51.404;5.474;2022-10-31T07:55:44;15.90;71.30
45785;DHT22;31489;51.404;5.474;2022-10-31T07:58:12;15.90;71.00
45785;DHT22;31489;51.404;5.474;2022-10-31T08:00:40;15.90;71.20
45785;DHT22;31489;51.404;5.474;2022-10-31T08:03:09;16.00;71.30
45785;DHT22;31489;51.404;5.474;2022-10-31T08:05:36;16.00;71.40
45785;DHT22;31489;51.404;5.474;2022-10-31T08:08:03;16.00;71.50
45785;DHT22;31489;51.404;5.474;2022-10-31T08:10:29;16.00;71.70
45785;DHT22;31489;51.404;5.474;2022-10-31T08:13:02;16.10;71.80
45785;DHT22;31489;51.404;5.474;2022-10-31T08:15:28;16.20;72.10
45785;DHT22;31489;51.404;5.474;2022-10-31T08:17:55;16.20;72.30
45785;DHT22;31489;51.404;5.474;2022-10-31T08:20:21;16.30;72.50
45785;DHT22;31489;51.404;5.474;2022-10-31T08:22:58;16.30;72.80
45785;DHT22;31489;51.404;5.474;2022-10-31T08:25:24;16.40;73.70
45785;DHT22;31489;51.404;5.474;2022-10-31T08:27:54;16.50;73.60
45785;DHT22;31489;51.404;5.474;2022-10-31T08:30:21;16.50;74.00
45785;DHT22;31489;51.404;5.474;2022-10-31T08:33:08;16.60;74.00
45785;DHT22;31489;51.404;5.474;2022-10-31T08:35:34;16.70;74.80
45785;DHT22;31489;51.404;5.474;2022-10-31T08:38:01;16.70;74.20
45785;DHT22;31489;51.404;5.474;2022-10-31T08:40:30;16.80;74.30
45785;DHT22;31489;51.404;5.474;2022-10-31T08:45:30;16.90;74.50
45785;DHT22;31489;51.404;5.474;2022-10-31T08:47:57;16.90;74.30
45785;DHT22;31489;51.404;5.474;2022-10-31T08:50:24;17.00;74.60
45785;DHT22;31489;51.404;5.474;2022-10-31T08:52:49;17.00;74.50
45785;DHT22;31489;51.404;5.474;2022-10-31T08:55:15;17.10;74.70
45785;DHT22;31489;51.404;5.474;2022-10-31T08:57:43;17.10;74.60
45785;DHT22;31489;51.404;5.474;2022-10-31T09:00:12;17.10;74.80
45785;DHT22;31489;51.404;5.474;2022-10-31T09:02:41;17.20;75.00
45785;DHT22;31489;51.404;5.474;2022-10-31T09:05:07;17.20;75.40
45785;DHT22;31489;51.404;5.474;2022-10-31T09:07:32;17.20;75.60
45785;DHT22;31489;51.404;5.474;2022-10-31T09:10:01;17.30;75.90
45785;DHT22;31489;51.404;5.474;2022-10-31T09:12:26;17.40;75.90
45785;DHT22;31489;51.404;5.474;2022-10-31T09:14:54;17.40;75.80
45785;DHT22;31489;51.404;5.474;2022-10-31T09:17:25;17.50;76.20
45785;DHT22;31489;51.404;5.474;2022-10-31T09:19:52;17.60;76.50
45785;DHT22;31489;51.404;5.474;2022-10-31T09:22:17;17.70;76.80
45785;DHT22;31489;51.404;5.474;2022-10-31T09:24:43;17.70;76.80
45785;DHT22;31489;51.404;5.474;2022-10-31T09:27:14;17.80;76.80
45785;DHT22;31489;51.404;5.474;2022-10-31T09:29:40;17.90;77.00
45785;DHT22;31489;51.404;5.474;2022-10-31T09:32:06;18.00;76.80
45785;DHT22;31489;51.404;5.474;2022-10-31T09:34:32;18.00;76.70
45785;DHT22;31489;51.404;5.474;2022-10-31T09:36:58;18.10;76.80
45785;DHT22;31489;51.404;5.474;2022-10-31T09:39:26;18.20;76.30
45785;DHT22;31489;51.404;5.474;2022-10-31T09:45:08;18.30;76.20
45785;DHT22;31489;51.404;5.474;2022-10-31T09:50:27;18.30;76.30
45785;DHT22;31489;51.404;5.474;2022-10-31T09:53:10;18.40;76.60
45785;DHT22;31489;51.404;5.474;2022-10-31T09:55:44;18.40;77.20
45785;DHT22;31489;51.404;5.474;2022-10-31T09:58:26;18.50;76.50
45785;DHT22;31489;51.404;5.474;2022-10-31T10:01:01;18.50;77.30
45785;DHT22;31489;51.404;5.474;2022-10-31T10:03:44;18.70;77.10
45785;DHT22;31489;51.404;5.474;2022-10-31T10:06:21;18.70;77.60
45785;DHT22;31489;51.404;5.474;2022-10-31T10:08:47;18.90;79.30
45785;DHT22;31489;51.404;5.474;2022-10-31T10:19:40;20.70;79.10
45785;DHT22;31489;51.404;5.474;2022-10-31T10:30:18;22.10;73.30
45785;DHT22;31489;51.404;5.474;2022-10-31T10:32:54;22.30;72.80
45785;DHT22;31489;51.404;5.474;2022-10-31T10:38:22;22.60;72.00
45785;DHT22;31489;51.404;5.474;2022-10-31T10:40:50;22.60;70.00
45785;DHT22;31489;51.404;5.474;2022-10-31T10:45:59;22.40;68.60
45785;DHT22;31489;51.404;5.474;2022-10-31T11:00:32;21.70;69.50
45785;DHT22;31489;51.404;5.474;2022-10-31T11:03:05;21.50;69.60
45785;DHT22;31489;51.404;5.474;2022-10-31T11:05:55;21.50;69.50
45785;DHT22;31489;51.404;5.474;2022-10-31T11:08:33;21.40;69.90
45785;DHT22;31489;51.404;5.474;2022-10-31T11:11:13;21.40;70.20
45785;DHT22;31489;51.404;5.474;2022-10-31T11:13:52;21.30;70.00
45785;DHT22;31489;51.404;5.474;2022-10-31T11:19:19;21.30;70.10
45785;DHT22;31489;51.404;5.474;2022-10-31T11:21:46;21.30;70.30
45785;DHT22;31489;51.404;5.474;2022-10-31T11:24:19;21.30;70.50
45785;DHT22;31489;51.404;5.474;2022-10-31T11:26:47;21.40;70.50
45785;DHT22;31489;51.404;5.474;2022-10-31T11:29:29;21.40;70.90
45785;DHT22;31489;51.404;5.474;2022-10-31T11:31:58;21.50;71.00
45785;DHT22;31489;51.404;5.474;2022-10-31T11:34:42;21.70;72.50
45785;DHT22;31489;51.404;5.474;2022-10-31T11:37:22;21.90;71.50
45785;DHT22;31489;51.404;5.474;2022-10-31T11:40:14;22.10;71.90
45785;DHT22;31489;51.404;5.474;2022-10-31T11:42:42;22.40;70.50
45785;DHT22;31489;51.404;5.474;2022-10-31T11:47:52;22.90;69.70
45785;DHT22;31489;51.404;5.474;2022-10-31T11:50:35;23.20;69.80
45785;DHT22;31489;51.404;5.474;2022-10-31T11:53:18;23.40;68.50
45785;DHT22;31489;51.404;5.474;2022-10-31T11:55:45;23.60;67.50
45785;DHT22;31489;51.404;5.474;2022-10-31T11:58:24;23.70;66.80
45785;DHT22;31489;51.404;5.474;2022-10-31T12:01:03;23.80;65.50
45785;DHT22;31489;51.404;5.474;2022-10-31T12:03:58;23.80;65.10
45785;DHT22;31489;51.404;5.474;2022-10-31T12:06:34;23.70;64.70
45785;DHT22;31489;51.404;5.474;2022-10-31T12:09:29;23.70;64.50
45785;DHT22;31489;51.404;5.474;2022-10-31T12:15:16;23.40;64.90
45785;DHT22;31489;51.404;5.474;2022-10-31T12:23:15;23.30;65.70
45785;DHT22;31489;51.404;5.474;2022-10-31T12:47:46;24.00;64.40
45785;DHT22;31489;51.404;5.474;2022-10-31T12:58:10;24.60;62.20
45785;DHT22;31489;51.404;5.474;2022-10-31T13:00:43;24.70;62.20
45785;DHT22;31489;51.404;5.474;2022-10-31T13:03:30;24.70;62.30
45785;DHT22;31489;51.404;5.474;2022-10-31T13:06:05;24.80;61.50
45785;DHT22;31489;51.404;5.474;2022-10-31T13:08:44;25.00;61.50
45785;DHT22;31489;51.404;5.474;2022-10-31T13:11:37;25.20;60.70
45785;DHT22;31489;51.404;5.474;2022-10-31T13:17:39;25.60;60.50
45785;DHT22;31489;51.404;5.474;2022-10-31T13:20:33;25.80;60.20
45785;DHT22;31489;51.404;5.474;2022-10-31T13:23:29;26.00;60.30
45785;DHT22;31489;51.404;5.474;2022-10-31T13:26:01;26.10;59.10
45785;DHT22;31489;51.404;5.474;2022-10-31T13:28:31;26.30;58.00
45785;DHT22;31489;51.404;5.474;2022-10-31T13:30:59;26.30;58.30
45785;DHT22;31489;51.404;5.474;2022-10-31T13:36:30;26.40;57.00
45785;DHT22;31489;51.404;5.474;2022-10-31T13:41:52;26.30;56.50
45785;DHT22;31489;51.404;5.474;2022-10-31T13:44:29;26.40;56.40
45785;DHT22;31489;51.404;5.474;2022-10-31T13:46:57;26.40;56.50
45785;DHT22;31489;51.404;5.474;2022-10-31T13:54:47;26.20;56.10
45785;DHT22;31489;51.404;5.474;2022-10-31T13:59:59;26.00;55.20
45785;DHT22;31489;51.404;5.474;2022-10-31T14:02:31;25.90;55.30
45785;DHT22;31489;51.404;5.474;2022-10-31T14:05:02;25.70;55.60
45785;DHT22;31489;51.404;5.474;2022-10-31T14:07:29;25.50;55.60
45785;DHT22;31489;51.404;5.474;2022-10-31T14:10:16;25.40;56.20
45785;DHT22;31489;51.404;5.474;2022-10-31T14:12:47;25.20;56.00
45785;DHT22;31489;51.404;5.474;2022-10-31T14:15:20;25.10;56.40
45785;DHT22;31489;51.404;5.474;2022-10-31T14:20:25;24.90;56.80
45785;DHT22;31489;51.404;5.474;2022-10-31T14:22:56;24.70;56.70
45785;DHT22;31489;51.404;5.474;2022-10-31T14:25:44;24.60;57.00
45785;DHT22;31489;51.404;5.474;2022-10-31T14:28:33;24.50;57.00
45785;DHT22;31489;51.404;5.474;2022-10-31T14:31:00;24.40;57.30
45785;DHT22;31489;51.404;5.474;2022-10-31T14:33:28;24.20;57.40
45785;DHT22;31489;51.404;5.474;2022-10-31T14:36:11;24.20;57.50
45785;DHT22;31489;51.404;5.474;2022-10-31T14:38:58;24.10;57.70
45785;DHT22;31489;51.404;5.474;2022-10-31T14:52:08;23.70;58.70
45785;DHT22;31489;51.404;5.474;2022-10-31T14:54:44;23.60;58.80
45785;DHT22;31489;51.404;5.474;2022-10-31T14:57:27;23.50;59.20
45785;DHT22;31489;51.404;5.474;2022-10-31T15:00:06;23.50;59.20
45785;DHT22;31489;51.404;5.474;2022-10-31T15:02:45;23.40;59.30
45785;DHT22;31489;51.404;5.474;2022-10-31T15:05:13;23.30;59.20
45785;DHT22;31489;51.404;5.474;2022-10-31T15:07:53;23.30;59.50
45785;DHT22;31489;51.404;5.474;2022-10-31T15:10:22;23.10;59.60
45785;DHT22;31489;51.404;5.474;2022-10-31T15:12:49;23.10;59.80
45785;DHT22;31489;51.404;5.474;2022-10-31T15:15:25;23.00;59.80
45785;DHT22;31489;51.404;5.474;2022-10-31T15:17:55;22.90;60.10
45785;DHT22;31489;51.404;5.474;2022-10-31T15:20:23;22.80;60.20
45785;DHT22;31489;51.404;5.474;2022-10-31T15:22:50;22.70;60.30
45785;DHT22;31489;51.404;5.474;2022-10-31T15:25:23;22.60;60.50
45785;DHT22;31489;51.404;5.474;2022-10-31T15:27:51;22.60;60.70
45785;DHT22;31489;51.404;5.474;2022-10-31T15:30:22;22.50;60.90
45785;DHT22;31489;51.404;5.474;2022-10-31T15:32:48;22.40;61.10
45785;DHT22;31489;51.404;5.474;2022-10-31T15:35:26;22.40;61.10
45785;DHT22;31489;51.404;5.474;2022-10-31T15:37:53;22.40;61.80
45785;DHT22;31489;51.404;5.474;2022-10-31T15:40:21;22.20;61.60
45785;DHT22;31489;51.404;5.474;2022-10-31T15:42:52;22.20;61.80
45785;DHT22;31489;51.404;5.474;2022-10-31T15:45:24;22.10;61.80
45785;DHT22;31489;51.404;5.474;2022-10-31T15:50:41;22.00;61.80
45785;DHT22;31489;51.404;5.474;2022-10-31T15:53:49;22.00;62.30
45785;DHT22;31489;51.404;5.474;2022-10-31T15:56:30;21.90;62.30
45785;DHT22;31489;51.404;5.474;2022-10-31T15:58:58;21.90;62.30
45785;DHT22;31489;51.404;5.474;2022-10-31T16:01:27;21.80;62.40
45785;DHT22;31489;51.404;5.474;2022-10-31T16:06:25;21.70;62.70
45785;DHT22;31489;51.404;5.474;2022-10-31T16:08:53;21.60;62.70
45785;DHT22;31489;51.404;5.474;2022-10-31T16:11:35;21.60;62.80
45785;DHT22;31489;51.404;5.474;2022-10-31T16:16:54;21.40;63.10
45785;DHT22;31489;51.404;5.474;2022-10-31T16:19:27;21.40;63.30
45785;DHT22;31489;51.404;5.474;2022-10-31T16:22:47;21.30;63.40
45785;DHT22;31489;51.404;5.474;2022-10-31T16:25:10;21.30;63.60
45785;DHT22;31489;51.404;5.474;2022-10-31T16:27:37;21.30;63.70
45785;DHT22;31489;51.404;5.474;2022-10-31T16:32:57;21.20;63.80
45785;DHT22;31489;51.404;5.474;2022-10-31T16:35:35;21.20;63.70
45785;DHT22;31489;51.404;5.474;2022-10-31T16:38:02;21.10;63.80
45785;DHT22;31489;51.404;5.474;2022-10-31T16:40:27;21.10;63.80
45785;DHT22;31489;51.404;5.474;2022-10-31T16:42:53;21.10;63.90
45785;DHT22;31489;51.404;5.474;2022-10-31T16:45:31;21.10;63.60
45785;DHT22;31489;51.404;5.474;2022-10-31T16:48:04;21.10;63.90
45785;DHT22;31489;51.404;5.474;2022-10-31T16:50:30;21.00;63.80
45785;DHT22;31489;51.404;5.474;2022-10-31T16:53:01;21.00;63.80
45785;DHT22;31489;51.404;5.474;2022-10-31T16:55:26;21.00;63.60
45785;DHT22;31489;51.404;5.474;2022-10-31T16:57:54;21.00;63.60
45785;DHT22;31489;51.404;5.474;2022-10-31T17:00:25;21.00;63.60
45785;DHT22;31489;51.404;5.474;2022-10-31T17:02:54;21.00;63.60
45785;DHT22;31489;51.404;5.474;2022-10-31T17:05:26;21.00;63.60
45785;DHT22;31489;51.404;5.474;2022-10-31T17:07:56;20.90;63.30
45785;DHT22;31489;51.404;5.474;2022-10-31T17:10:25;20.90;63.30
45785;DHT22;31489;51.404;5.474;2022-10-31T17:13:02;20.90;63.40
45785;DHT22;31489;51.404;5.474;2022-10-31T17:15:32;20.80;63.20
45785;DHT22;31489;51.404;5.474;2022-10-31T17:18:03;20.80;63.20
45785;DHT22;31489;51.404;5.474;2022-10-31T17:20:30;20.70;62.90
45785;DHT22;31489;51.404;5.474;2022-10-31T17:23:03;20.80;63.00
45785;DHT22;31489;51.404;5.474;2022-10-31T17:25:32;20.70;63.00
45785;DHT22;31489;51.404;5.474;2022-10-31T17:28:00;20.70;63.10
45785;DHT22;31489;51.404;5.474;2022-10-31T17:30:32;20.60;63.10
45785;DHT22;31489;51.404;5.474;2022-10-31T17:33:03;20.60;63.30
45785;DHT22;31489;51.404;5.474;2022-10-31T17:35:29;20.60;63.10
45785;DHT22;31489;51.404;5.474;2022-10-31T17:37:54;20.50;63.30
45785;DHT22;31489;51.404;5.474;2022-10-31T17:40:22;20.50;63.30
45785;DHT22;31489;51.404;5.474;2022-10-31T17:42:52;20.50;63.30
45785;DHT22;31489;51.404;5.474;2022-10-31T17:45:19;20.40;63.20
45785;DHT22;31489;51.404;5.474;2022-10-31T17:47:49;20.40;63.20
45785;DHT22;31489;51.404;5.474;2022-10-31T17:50:19;20.40;63.30
45785;DHT22;31489;51.404;5.474;2022-10-31T17:52:46;20.30;63.40
45785;DHT22;31489;51.404;5.474;2022-10-31T17:55:12;20.30;63.40
45785;DHT22;31489;51.404;5.474;2022-10-31T17:57:38;20.30;63.30
45785;DHT22;31489;51.404;5.474;2022-10-31T18:00:06;20.20;63.40
45785;DHT22;31489;51.404;5.474;2022-10-31T18:02:35;20.20;63.50
45785;DHT22;31489;51.404;5.474;2022-10-31T18:05:06;20.20;63.60
45785;DHT22;31489;51.404;5.474;2022-10-31T18:07:48;20.10;63.60
45785;DHT22;31489;51.404;5.474;2022-10-31T18:10:17;20.10;63.80
45785;DHT22;31489;51.404;5.474;2022-10-31T18:12:48;20.10;63.70
45785;DHT22;31489;51.404;5.474;2022-10-31T18:15:17;20.10;63.80
45785;DHT22;31489;51.404;5.474;2022-10-31T18:17:47;20.00;63.70
45785;DHT22;31489;51.404;5.474;2022-10-31T18:20:15;20.00;63.80
45785;DHT22;31489;51.404;5.474;2022-10-31T18:22:53;19.90;63.80
45785;DHT22;31489;51.404;5.474;2022-10-31T18:25:24;20.00;63.80
45785;DHT22;31489;51.404;5.474;2022-10-31T18:27:56;19.90;64.00
45785;DHT22;31489;51.404;5.474;2022-10-31T18:30:24;19.90;63.90
45785;DHT22;31489;51.404;5.474;2022-10-31T18:32:53;19.80;64.00